Time;durP1;ratioP1;P1;durP2;ratioP2;P2;SDS_P1;SDS_P2;PMS_P1;PMS_P2;Temp;Humidity;BMP_temperature;BMP_pressure;BME280_temperature;BME280_humidity;BME280_pressure;Samples;Min_cycle;Max_cycle;Signal;HPM_P1;HPM_P2
2022/10/24 00:00:21;;;;;;;14.27;7.70;;;14.30;1.00;;;;;;6161499;23;20421;-86
2022/10/24 00:02:51;;;;;;;15.40;7.83;;;14.30;1.00;;;;;;6186958;23;20397;-84
2022/10/24 00:05:28;;;;;;;15.43;7.93;;;14.30;1.00;;;;;;6190339;23;20476;-83
2022/10/24 00:07:55;;;;;;;16.70;8.53;;;14.30;1.00;;;;;;6193808;23;20425;-84
2022/10/24 00:10:22;;;;;;;15.37;8.93;;;14.40;1.00;;;;;;6165293;23;20456;-84
2022/10/24 00:12:54;;;;;;;15.50;8.30;;;14.40;1.00;;;;;;6134154;23;20673;-83
2022/10/24 00:15:30;;;;;;;14.03;7.70;;;14.40;1.00;;;;;;6171477;23;20431;-83
2022/10/24 00:18:03;;;;;;;14.27;9.67;;;14.40;1.00;;;;;;6176692;23;20435;-83
2022/10/24 00:20:32;;;;;;;13.30;8.77;;;14.30;1.00;;;;;;6154795;23;20425;-84
2022/10/24 00:23:14;;;;;;;13.90;9.30;;;14.20;1.00;;;;;;6162052;23;20461;-85
2022/10/24 00:25:41;;;;;;;15.80;10.27;;;14.10;1.00;;;;;;6190704;23;20441;-83
2022/10/24 00:28:12;;;;;;;14.87;9.37;;;14.00;1.00;;;;;;6183408;23;20533;-87
2022/10/24 00:30:54;;;;;;;18.37;9.93;;;14.00;1.00;;;;;;6168826;23;20421;-86
2022/10/24 00:33:23;;;;;;;13.70;8.83;;;14.00;1.00;;;;;;6192207;23;21278;-85
2022/10/24 00:35:52;;;;;;;15.00;9.87;;;13.90;1.00;;;;;;6148800;23;20424;-84
2022/10/24 00:38:20;;;;;;;19.03;10.40;;;13.90;1.00;;;;;;6190050;23;20413;-85
2022/10/24 00:40:52;;;;;;;16.40;10.13;;;13.80;1.00;;;;;;6141209;23;20443;-84
2022/10/24 00:43:23;;;;;;;15.00;10.33;;;13.80;1.00;;;;;;6182784;23;20444;-83
2022/10/24 00:45:54;;;;;;;16.40;9.60;;;13.80;1.00;;;;;;6166396;23;20473;-85
2022/10/24 00:48:25;;;;;;;17.00;9.30;;;13.80;1.00;;;;;;6188093;23;20567;-83
2022/10/24 00:50:56;;;;;;;17.00;9.93;;;13.80;1.00;;;;;;6162046;23;20424;-84
2022/10/24 00:53:37;;;;;;;17.07;11.23;;;13.70;1.00;;;;;;6147130;23;20421;-84
2022/10/24 00:56:11;;;;;;;17.00;10.20;;;13.70;1.00;;;;;;6145932;23;21048;-85
2022/10/24 00:58:51;;;;;;;16.93;10.80;;;13.70;1.00;;;;;;6129800;23;20484;-85
2022/10/24 01:01:19;;;;;;;16.57;9.80;;;13.70;1.00;;;;;;6149256;23;20418;-84
2022/10/24 01:03:46;;;;;;;18.03;10.20;;;13.60;1.00;;;;;;6175280;23;20504;-84
2022/10/24 01:06:31;;;;;;;15.83;10.17;;;13.60;1.00;;;;;;6142880;23;20467;-85
2022/10/24 01:09:23;;;;;;;15.17;11.30;;;13.60;1.00;;;;;;6188131;23;20432;-84
2022/10/24 01:12:05;;;;;;;14.37;10.57;;;13.60;1.00;;;;;;6168604;23;20386;-85
2022/10/24 01:14:42;;;;;;;17.80;10.20;;;13.60;1.00;;;;;;6164952;23;20425;-84
2022/10/24 01:17:21;;;;;;;17.60;10.57;;;13.60;1.00;;;;;;6177240;23;20467;-85
2022/10/24 01:20:14;;;;;;;16.37;10.47;;;13.60;1.00;;;;;;6157621;23;20488;-86
2022/10/24 01:22:54;;;;;;;16.17;9.73;;;13.50;1.00;;;;;;6179716;23;20479;-84
2022/10/24 01:25:37;;;;;;;15.73;9.90;;;13.50;1.00;;;;;;6179381;23;20417;-84
2022/10/24 01:28:07;;;;;;;19.60;9.83;;;13.50;1.00;;;;;;6176163;23;20488;-83
2022/10/24 01:30:42;;;;;;;16.27;10.20;;;13.50;1.00;;;;;;6178743;23;20978;-84
2022/10/24 01:33:17;;;;;;;15.20;9.30;;;13.50;1.00;;;;;;6171740;23;20428;-83
2022/10/24 01:35:49;;;;;;;15.80;9.33;;;13.50;1.00;;;;;;6165115;23;20411;-83
2022/10/24 01:38:23;;;;;;;15.40;10.27;;;13.50;1.00;;;;;;6168521;23;20400;-83
2022/10/24 01:40:59;;;;;;;16.00;9.43;;;13.60;1.00;;;;;;6147590;23;20491;-84
2022/10/24 01:43:30;;;;;;;19.63;11.83;;;13.60;1.00;;;;;;6189114;23;20827;-84
2022/10/24 01:46:03;;;;;;;16.10;11.17;;;13.50;1.00;;;;;;6158908;23;20403;-84
2022/10/24 01:48:37;;;;;;;15.67;9.67;;;13.50;1.00;;;;;;6204194;23;20427;-84
2022/10/24 01:51:06;;;;;;;16.33;9.97;;;13.60;1.00;;;;;;6196756;23;20402;-85
2022/10/24 01:53:36;;;;;;;16.60;9.57;;;13.60;1.00;;;;;;6151198;23;20394;-84
2022/10/24 01:56:03;;;;;;;15.53;10.33;;;13.50;1.00;;;;;;6174803;23;20446;-84
2022/10/24 01:58:32;;;;;;;14.67;9.27;;;13.60;1.00;;;;;;6196279;23;20429;-83
2022/10/24 02:01:05;;;;;;;19.77;10.57;;;13.60;1.00;;;;;;6162517;23;20464;-86
2022/10/24 02:03:36;;;;;;;16.73;9.40;;;13.50;1.00;;;;;;6185149;23;20405;-83
2022/10/24 02:06:13;;;;;;;16.17;10.20;;;13.50;1.00;;;;;;6184727;23;20878;-84
2022/10/24 02:08:44;;;;;;;16.80;10.20;;;13.50;1.00;;;;;;6182265;23;20451;-82
2022/10/24 02:11:11;;;;;;;20.03;9.80;;;13.50;1.00;;;;;;6178137;23;20436;-84
2022/10/24 02:13:44;;;;;;;14.93;10.43;;;13.50;1.00;;;;;;6177962;23;20466;-84
2022/10/24 02:16:17;;;;;;;14.70;9.00;;;13.40;1.00;;;;;;6182493;23;20424;-83
2022/10/24 02:18:47;;;;;;;17.23;8.57;;;13.50;1.00;;;;;;6167506;23;20436;-84
2022/10/24 02:21:23;;;;;;;14.57;9.23;;;13.50;1.00;;;;;;6164822;23;20880;-84
2022/10/24 02:24:03;;;;;;;19.57;12.37;;;13.50;1.00;;;;;;6124600;23;20409;-83
2022/10/24 02:26:38;;;;;;;17.50;9.77;;;13.50;1.00;;;;;;6154861;23;20504;-84
2022/10/24 02:29:11;;;;;;;17.17;10.23;;;13.50;1.00;;;;;;6163567;23;20901;-82
2022/10/24 02:32:01;;;;;;;16.77;10.60;;;13.40;1.00;;;;;;6195747;23;20433;-83
2022/10/24 02:34:54;;;;;;;17.63;10.77;;;13.40;1.00;;;;;;6153697;23;21038;-87
2022/10/24 02:40:15;;;;;;;18.23;10.20;;;13.30;1.00;;;;;;6151078;23;20511;-84
2022/10/24 02:42:52;;;;;;;14.10;8.30;;;13.20;1.00;;;;;;6163807;23;20466;-85
2022/10/24 02:45:23;;;;;;;16.60;10.70;;;13.10;1.00;;;;;;6162384;23;20425;-83
2022/10/24 02:48:01;;;;;;;16.77;10.60;;;13.10;1.00;;;;;;6169562;23;20381;-84
2022/10/24 02:50:34;;;;;;;15.93;9.23;;;13.10;1.00;;;;;;6160028;23;20419;-84
2022/10/24 02:53:12;;;;;;;17.00;9.17;;;13.00;1.00;;;;;;6154353;23;20499;-84
2022/10/24 02:55:45;;;;;;;16.00;10.10;;;12.90;1.00;;;;;;6135430;23;20387;-83
2022/10/24 02:58:14;;;;;;;17.57;10.77;;;13.00;1.00;;;;;;6163337;23;20402;-84
2022/10/24 03:00:44;;;;;;;17.07;10.60;;;12.90;1.00;;;;;;6131627;23;20432;-87
2022/10/24 03:03:15;;;;;;;16.90;10.23;;;12.90;1.00;;;;;;6168626;23;20412;-84
2022/10/24 03:05:45;;;;;;;18.40;10.80;;;12.90;1.00;;;;;;6128657;23;20407;-84
2022/10/24 03:08:12;;;;;;;21.40;11.07;;;12.90;1.00;;;;;;6157626;23;20448;-83
2022/10/24 03:10:45;;;;;;;18.13;12.10;;;12.90;1.00;;;;;;6176105;23;20849;-83
2022/10/24 03:13:14;;;;;;;18.63;11.77;;;13.00;1.00;;;;;;6145498;23;20495;-83
2022/10/24 03:15:44;;;;;;;20.13;12.40;;;12.90;1.00;;;;;;6161308;23;21209;-83
2022/10/24 03:18:12;;;;;;;17.90;12.43;;;12.90;1.00;;;;;;6156123;23;20438;-84
2022/10/24 03:20:42;;;;;;;19.87;12.37;;;12.90;1.00;;;;;;6131680;23;20495;-82
2022/10/24 03:23:20;;;;;;;18.90;11.67;;;12.80;1.00;;;;;;6144779;23;20823;-82
2022/10/24 03:25:55;;;;;;;18.80;12.00;;;12.90;1.00;;;;;;6109242;23;20413;-82
2022/10/24 03:28:24;;;;;;;18.17;11.70;;;12.90;1.00;;;;;;6143892;23;20434;-82
2022/10/24 03:30:55;;;;;;;21.27;13.20;;;12.90;1.00;;;;;;6164636;23;20425;-82
2022/10/24 03:33:23;;;;;;;18.80;12.40;;;12.90;1.00;;;;;;6169160;23;20560;-83
2022/10/24 03:35:54;;;;;;;18.83;12.40;;;12.90;1.00;;;;;;6192576;23;20538;-83
2022/10/24 03:38:23;;;;;;;17.37;10.93;;;12.80;1.00;;;;;;6190233;23;20410;-83
2022/10/24 03:40:51;;;;;;;18.50;11.70;;;12.80;1.00;;;;;;6197911;23;20416;-83
2022/10/24 03:43:18;;;;;;;19.87;13.07;;;12.80;1.00;;;;;;6183027;23;20418;-83
2022/10/24 03:45:45;;;;;;;20.80;12.20;;;12.90;1.00;;;;;;6194732;23;20499;-82
2022/10/24 03:48:13;;;;;;;18.73;12.50;;;12.90;1.00;;;;;;6175319;23;20440;-82
2022/10/24 03:50:44;;;;;;;19.10;12.13;;;12.90;1.00;;;;;;6184603;23;20413;-83
2022/10/24 03:53:11;;;;;;;19.10;11.50;;;12.90;1.00;;;;;;6187971;23;20444;-83
2022/10/24 03:55:38;;;;;;;20.00;11.00;;;12.90;1.00;;;;;;6156666;23;20424;-84
2022/10/24 03:58:05;;;;;;;15.40;9.90;;;12.90;1.00;;;;;;6178322;23;20500;-85
2022/10/24 04:00:38;;;;;;;19.60;10.60;;;12.90;1.00;;;;;;6170527;23;20417;-83
2022/10/24 04:03:10;;;;;;;17.07;11.10;;;12.90;1.00;;;;;;6175532;23;20436;-83
2022/10/24 04:05:38;;;;;;;15.77;9.67;;;12.90;1.00;;;;;;6185164;23;20429;-84
2022/10/24 04:08:07;;;;;;;15.77;8.37;;;12.90;1.00;;;;;;6178838;23;20523;-84
2022/10/24 04:10:34;;;;;;;15.20;9.00;;;12.90;1.00;;;;;;6186508;23;20398;-84
2022/10/24 04:13:04;;;;;;;13.60;8.10;;;12.90;1.00;;;;;;6184232;23;20408;-84
2022/10/24 04:15:33;;;;;;;15.17;8.83;;;12.90;1.00;;;;;;6167272;23;20422;-84
2022/10/24 04:18:03;;;;;;;15.30;8.93;;;12.90;1.00;;;;;;6164122;23;20430;-84
2022/10/24 04:20:35;;;;;;;13.80;8.90;;;12.80;1.00;;;;;;6133299;23;20428;-85
2022/10/24 04:23:02;;;;;;;13.70;7.80;;;12.90;1.00;;;;;;6167567;23;20472;-84
2022/10/24 04:25:34;;;;;;;14.83;8.27;;;12.90;1.00;;;;;;6200339;23;20404;-83
2022/10/24 04:28:03;;;;;;;14.47;9.07;;;12.90;1.00;;;;;;6191647;23;20431;-84
2022/10/24 04:30:36;;;;;;;12.70;8.03;;;12.80;1.00;;;;;;6188409;23;20424;-86
2022/10/24 04:33:03;;;;;;;14.93;9.33;;;12.80;1.00;;;;;;6182656;23;20435;-86
2022/10/24 04:35:43;;;;;;;16.20;9.87;;;12.80;1.00;;;;;;6167684;23;20426;-84
2022/10/24 04:38:25;;;;;;;14.77;9.03;;;12.80;1.00;;;;;;6154588;23;20540;-83
2022/10/24 04:40:54;;;;;;;14.47;8.10;;;12.80;1.00;;;;;;6149723;23;20391;-82
2022/10/24 04:43:25;;;;;;;13.00;8.70;;;12.70;1.00;;;;;;6177558;23;20397;-84
2022/10/24 04:45:54;;;;;;;14.17;8.50;;;12.70;1.00;;;;;;6127520;23;20498;-83
2022/10/24 04:48:32;;;;;;;14.87;8.70;;;12.70;1.00;;;;;;6154946;23;20463;-83
2022/10/24 04:51:06;;;;;;;12.87;7.70;;;12.70;1.00;;;;;;6186329;23;21303;-84
2022/10/24 04:53:36;;;;;;;14.63;8.07;;;12.70;1.00;;;;;;6149901;23;20432;-83
2022/10/24 04:56:05;;;;;;;13.20;8.30;;;12.70;1.00;;;;;;6164367;23;20410;-83
2022/10/24 04:58:34;;;;;;;12.30;7.87;;;12.70;1.00;;;;;;6154385;23;20436;-83
2022/10/24 05:01:04;;;;;;;15.43;8.07;;;12.70;1.00;;;;;;6188604;23;20435;-84
2022/10/24 05:03:34;;;;;;;16.37;8.33;;;12.70;1.00;;;;;;6135418;23;20435;-84
2022/10/24 05:06:05;;;;;;;12.80;7.93;;;12.70;1.00;;;;;;6181133;23;21154;-83
2022/10/24 05:08:36;;;;;;;14.00;8.17;;;12.70;1.00;;;;;;6125614;23;20429;-83
2022/10/24 05:11:11;;;;;;;17.33;7.80;;;12.70;1.00;;;;;;6192722;23;20428;-83
2022/10/24 05:13:45;;;;;;;14.50;8.00;;;12.70;1.00;;;;;;6135909;23;20457;-83
2022/10/24 05:16:13;;;;;;;14.63;7.60;;;12.70;1.00;;;;;;6175573;23;21116;-82
2022/10/24 05:18:42;;;;;;;17.13;8.63;;;12.70;1.00;;;;;;6154810;23;20448;-82
2022/10/24 05:21:29;;;;;;;18.13;7.73;;;12.70;1.00;;;;;;6180445;23;20429;-85
2022/10/24 05:23:55;;;;;;;13.40;8.00;;;12.60;1.00;;;;;;6168701;23;20476;-83
2022/10/24 05:26:24;;;;;;;13.83;8.33;;;12.70;1.00;;;;;;6184543;23;20416;-84
2022/10/24 05:28:53;;;;;;;14.50;8.07;;;12.60;1.00;;;;;;6175458;23;20519;-84
2022/10/24 05:31:22;;;;;;;13.90;7.30;;;12.70;1.00;;;;;;6179688;23;20456;-83
2022/10/24 05:33:53;;;;;;;13.40;7.83;;;12.70;1.00;;;;;;6162154;23;20442;-83
2022/10/24 05:36:23;;;;;;;15.37;8.67;;;12.70;1.00;;;;;;6180251;23;20932;-83
2022/10/24 05:38:58;;;;;;;14.53;7.83;;;12.70;1.00;;;;;;6149107;23;20984;-82
2022/10/24 05:41:35;;;;;;;16.67;8.50;;;12.70;1.00;;;;;;6154433;23;20496;-82
2022/10/24 05:44:05;;;;;;;13.00;7.20;;;12.80;1.00;;;;;;6164882;23;20425;-81
2022/10/24 05:46:34;;;;;;;16.93;8.10;;;12.80;1.00;;;;;;6178479;23;20439;-82
2022/10/24 05:49:03;;;;;;;14.07;8.27;;;12.90;1.00;;;;;;6184594;23;20420;-81
2022/10/24 05:51:30;;;;;;;16.43;8.40;;;12.80;1.00;;;;;;6180790;23;20441;-82
2022/10/24 05:53:59;;;;;;;17.00;8.90;;;12.80;1.00;;;;;;6176837;23;20392;-84
2022/10/24 05:56:34;;;;;;;14.07;7.83;;;12.90;1.00;;;;;;6150149;23;20398;-82
2022/10/24 05:59:04;;;;;;;13.27;7.60;;;12.90;1.00;;;;;;6168570;23;20495;-81
2022/10/24 06:01:34;;;;;;;14.27;8.27;;;12.90;1.00;;;;;;6140092;23;20400;-82
2022/10/24 06:06:53;;;;;;;16.27;9.20;;;12.90;1.00;;;;;;6152254;23;20426;-81
2022/10/24 06:09:23;;;;;;;17.90;8.90;;;12.90;1.00;;;;;;6168685;23;20448;-82
2022/10/24 06:11:54;;;;;;;14.07;8.10;;;12.90;1.00;;;;;;6146723;23;20469;-82
2022/10/24 06:14:32;;;;;;;14.70;8.10;;;12.90;1.00;;;;;;6136854;23;20432;-82
2022/10/24 06:17:07;;;;;;;15.20;10.00;;;13.00;1.00;;;;;;6178978;23;20515;-82
2022/10/24 06:19:35;;;;;;;17.40;9.50;;;12.90;1.00;;;;;;6149059;23;20446;-82
2022/10/24 06:22:05;;;;;;;15.40;8.73;;;12.80;1.00;;;;;;6198642;23;20500;-83
2022/10/24 06:24:46;;;;;;;17.90;10.03;;;12.80;1.00;;;;;;6145368;23;21130;-83
2022/10/24 06:27:15;;;;;;;17.43;9.73;;;12.90;1.00;;;;;;6154478;23;20420;-81
2022/10/24 06:29:45;;;;;;;16.97;9.83;;;12.90;1.00;;;;;;6144396;23;21269;-80
2022/10/24 06:32:14;;;;;;;15.97;8.50;;;13.00;1.00;;;;;;6179948;23;20428;-79
2022/10/24 06:34:41;;;;;;;15.73;8.40;;;13.00;1.00;;;;;;6181510;23;21115;-79
2022/10/24 06:37:08;;;;;;;16.00;8.57;;;13.00;1.00;;;;;;6180903;23;20506;-79
2022/10/24 06:39:35;;;;;;;15.00;8.47;;;13.00;1.00;;;;;;6175963;23;20500;-82
2022/10/24 06:42:05;;;;;;;23.13;9.00;;;13.00;1.00;;;;;;6172309;23;21133;-79
2022/10/24 06:44:37;;;;;;;19.80;9.63;;;13.00;1.00;;;;;;6140918;23;20432;-80
2022/10/24 06:47:04;;;;;;;19.33;9.30;;;13.10;1.00;;;;;;6178875;23;20420;-79
2022/10/24 06:49:33;;;;;;;19.17;10.13;;;13.10;1.00;;;;;;6180569;23;20452;-82
2022/10/24 06:52:00;;;;;;;22.50;9.87;;;13.20;1.00;;;;;;6173670;23;20426;-80
2022/10/24 06:54:28;;;;;;;20.00;10.27;;;13.20;1.00;;;;;;6175347;23;20467;-82
2022/10/24 06:56:55;;;;;;;27.00;11.50;;;13.30;1.00;;;;;;6160630;23;20421;-79
2022/10/24 06:59:26;;;;;;;17.60;9.43;;;13.30;1.00;;;;;;6174128;23;20516;-83
2022/10/24 07:01:57;;;;;;;16.17;9.33;;;13.40;1.00;;;;;;6178238;23;20488;-80
2022/10/24 07:04:25;;;;;;;20.80;10.47;;;13.40;1.00;;;;;;6179140;23;20523;-79
2022/10/24 07:07:16;;;;;;;19.50;9.27;;;13.40;1.00;;;;;;6178480;23;21173;-83
2022/10/24 07:09:54;;;;;;;14.50;8.60;;;13.40;1.00;;;;;;6145388;23;20841;-79
2022/10/24 07:12:21;;;;;;;15.53;9.00;;;13.40;1.00;;;;;;6164380;23;20433;-79
2022/10/24 07:14:49;;;;;;;18.90;9.07;;;13.40;1.00;;;;;;6165978;23;20954;-80
2022/10/24 07:17:18;;;;;;;18.07;7.90;;;13.50;1.00;;;;;;6196755;23;20420;-79
2022/10/24 07:19:45;;;;;;;13.00;6.87;;;13.50;1.00;;;;;;6197106;23;20501;-81
2022/10/24 07:22:17;;;;;;;17.00;8.30;;;13.60;1.00;;;;;;6195265;23;20418;-80
2022/10/24 07:24:46;;;;;;;14.70;7.70;;;13.70;1.00;;;;;;6179722;23;20436;-82
2022/10/24 07:27:14;;;;;;;15.10;8.40;;;13.70;1.00;;;;;;6181999;23;20488;-81
2022/10/24 07:29:45;;;;;;;15.43;7.90;;;13.80;1.00;;;;;;6176896;23;20434;-81
2022/10/24 07:32:17;;;;;;;16.27;7.90;;;13.90;1.00;;;;;;6195294;23;20388;-84
2022/10/24 07:34:46;;;;;;;16.40;7.63;;;14.00;1.00;;;;;;6192358;23;20452;-80
2022/10/24 07:37:13;;;;;;;15.27;8.07;;;14.00;1.00;;;;;;6196361;23;20418;-81
2022/10/24 07:39:45;;;;;;;15.27;7.80;;;14.20;1.00;;;;;;6165046;23;20475;-80
2022/10/24 07:42:13;;;;;;;13.17;7.70;;;14.30;1.00;;;;;;6206233;23;20433;-79
2022/10/24 07:44:44;;;;;;;14.30;6.83;;;14.50;1.00;;;;;;6193919;23;20523;-79
2022/10/24 07:47:14;;;;;;;17.07;6.60;;;14.60;1.00;;;;;;6163435;23;20429;-82
2022/10/24 07:49:43;;;;;;;14.13;7.37;;;14.60;1.00;;;;;;6195323;23;20493;-79
2022/10/24 07:52:13;;;;;;;15.40;7.90;;;14.70;1.00;;;;;;6195352;23;20540;-78
2022/10/24 07:54:44;;;;;;;15.47;6.90;;;14.70;1.00;;;;;;6194680;23;20442;-82
2022/10/24 07:57:17;;;;;;;14.00;7.23;;;14.80;1.00;;;;;;6193892;23;20506;-81
2022/10/24 07:59:44;;;;;;;14.73;7.70;;;14.90;1.00;;;;;;6184405;23;20981;-81
2022/10/24 08:02:14;;;;;;;17.20;6.63;;;15.00;1.00;;;;;;6197065;23;20520;-81
2022/10/24 08:04:50;;;;;;;17.40;6.93;;;15.10;1.00;;;;;;6195246;23;20464;-80
2022/10/24 08:07:17;;;;;;;14.03;6.00;;;15.10;1.00;;;;;;6166832;23;20968;-80
2022/10/24 08:09:46;;;;;;;17.60;8.20;;;15.20;1.00;;;;;;6191710;23;20431;-83
2022/10/24 08:12:14;;;;;;;11.50;6.20;;;15.20;1.00;;;;;;6179116;23;20443;-79
2022/10/24 08:14:45;;;;;;;11.97;6.07;;;15.30;1.00;;;;;;6192058;23;20434;-80
2022/10/24 08:17:16;;;;;;;17.30;6.93;;;15.40;1.00;;;;;;6196163;23;20420;-79
2022/10/24 08:19:56;;;;;;;12.63;6.20;;;15.50;1.00;;;;;;6176461;23;20430;-80
2022/10/24 08:22:23;;;;;;;16.33;6.60;;;15.60;1.00;;;;;;6192874;23;20535;-79
2022/10/24 08:24:51;;;;;;;14.73;6.27;;;15.80;1.00;;;;;;6151585;23;20988;-81
2022/10/24 08:27:18;;;;;;;14.53;5.13;;;15.90;1.00;;;;;;6198091;23;20427;-80
2022/10/24 08:29:45;;;;;;;12.20;5.77;;;16.10;1.00;;;;;;6193184;23;20510;-78
2022/10/24 08:32:13;;;;;;;17.57;6.50;;;16.30;1.00;;;;;;6192113;23;20435;-80
2022/10/24 08:34:42;;;;;;;12.40;5.43;;;16.40;1.00;;;;;;6194676;23;20439;-81
2022/10/24 08:37:18;;;;;;;12.80;5.07;;;16.50;1.00;;;;;;6194862;23;20524;-79
2022/10/24 08:39:47;;;;;;;11.50;5.27;;;16.70;1.00;;;;;;6179786;23;20424;-80
2022/10/24 08:42:16;;;;;;;13.73;5.63;;;17.00;1.00;;;;;;6188131;23;20427;-82
2022/10/24 08:44:46;;;;;;;14.37;5.30;;;17.10;1.00;;;;;;6207021;23;20561;-80
2022/10/24 08:47:25;;;;;;;12.17;4.77;;;17.30;1.00;;;;;;6194268;23;20457;-81
2022/10/24 08:49:55;;;;;;;13.53;4.50;;;17.50;1.00;;;;;;6193024;23;20412;-78
2022/10/24 08:52:32;;;;;;;11.10;4.20;;;17.70;1.00;;;;;;6178537;23;20520;-80
2022/10/24 08:55:12;;;;;;;11.70;5.00;;;17.70;1.00;;;;;;6157730;23;20424;-82
2022/10/24 08:58:03;;;;;;;12.33;4.57;;;17.90;1.00;;;;;;6180245;23;21118;-80
2022/10/24 09:01:16;;;;;;;10.00;4.00;;;18.00;1.00;;;;;;6153442;23;20435;-80
2022/10/24 09:03:46;;;;;;;11.47;4.43;;;18.20;1.00;;;;;;6135634;23;20456;-81
2022/10/24 09:06:31;;;;;;;10.37;3.83;;;18.10;1.00;;;;;;6148439;23;21146;-79
2022/10/24 09:09:14;;;;;;;14.90;4.03;;;18.10;1.00;;;;;;6193335;23;20455;-80
2022/10/24 09:11:55;;;;;;;13.83;4.20;;;18.10;1.00;;;;;;6139755;23;20457;-79
2022/10/24 09:14:32;;;;;;;10.83;4.13;;;18.10;1.00;;;;;;6173026;23;20902;-81
2022/10/24 09:17:12;;;;;;;12.50;3.23;;;18.30;1.00;;;;;;6160866;23;20462;-81
2022/10/24 09:19:55;;;;;;;12.93;4.33;;;18.40;1.00;;;;;;6134869;23;20413;-80
2022/10/24 09:22:33;;;;;;;15.57;4.00;;;18.40;1.00;;;;;;6152716;23;20460;-81
2022/10/24 09:25:07;;;;;;;14.00;4.70;;;18.50;1.00;;;;;;6116639;23;20389;-81
2022/10/24 09:27:36;;;;;;;11.67;4.77;;;18.50;1.00;;;;;;6173083;23;20435;-79
2022/10/24 09:30:14;;;;;;;11.33;3.80;;;18.50;1.00;;;;;;6162448;23;20826;-84
2022/10/24 09:32:44;;;;;;;15.40;4.10;;;18.40;1.00;;;;;;6179100;23;20431;-80
2022/10/24 09:35:19;;;;;;;11.93;4.30;;;18.60;1.00;;;;;;6166174;23;20470;-85
2022/10/24 09:40:37;;;;;;;10.27;4.10;;;18.80;1.00;;;;;;6144843;23;20810;-86
2022/10/24 09:43:15;;;;;;;11.97;3.73;;;18.90;1.00;;;;;;6153794;23;20459;-79
2022/10/24 09:45:45;;;;;;;15.17;3.93;;;19.00;1.00;;;;;;6188533;23;20877;-78
2022/10/24 09:48:25;;;;;;;10.90;4.00;;;19.10;1.00;;;;;;6174718;23;20513;-82
2022/10/24 09:51:03;;;;;;;12.30;4.60;;;19.20;1.00;;;;;;6165018;23;20409;-82
2022/10/24 09:54:05;;;;;;;12.17;3.50;;;19.30;1.00;;;;;;6160251;23;20663;-81
2022/10/24 09:56:48;;;;;;;11.93;3.47;;;19.20;1.00;;;;;;6141294;23;20416;-81
2022/10/24 09:59:37;;;;;;;8.40;3.07;;;19.20;1.00;;;;;;6152221;23;21331;-82
2022/10/24 10:02:33;;;;;;;11.23;4.27;;;19.30;1.00;;;;;;6167152;23;20418;-82
2022/10/24 10:05:25;;;;;;;9.07;3.60;;;19.30;1.00;;;;;;6143564;23;20556;-82
2022/10/24 10:07:54;;;;;;;10.77;3.73;;;19.30;1.00;;;;;;6157035;23;20458;-81
2022/10/24 10:10:42;;;;;;;9.40;3.80;;;19.30;1.00;;;;;;6140762;23;20433;-82
2022/10/24 10:13:24;;;;;;;14.57;3.43;;;19.40;1.00;;;;;;6152782;23;20816;-82
2022/10/24 10:15:55;;;;;;;10.93;3.57;;;19.50;1.00;;;;;;6176933;23;20501;-81
2022/10/24 10:18:31;;;;;;;12.40;4.03;;;19.60;1.00;;;;;;6175626;23;20429;-82
2022/10/24 10:21:10;;;;;;;8.20;4.00;;;19.60;1.00;;;;;;6173215;23;20425;-82
2022/10/24 10:23:41;;;;;;;11.00;3.40;;;19.70;1.00;;;;;;6174941;23;20488;-82
2022/10/24 10:26:18;;;;;;;10.03;3.30;;;19.80;1.00;;;;;;6179484;23;20416;-83
2022/10/24 10:29:05;;;;;;;11.17;3.17;;;19.80;1.00;;;;;;6173844;23;20432;-84
2022/10/24 10:31:39;;;;;;;16.37;3.37;;;19.70;1.00;;;;;;6172806;23;20439;-81
2022/10/24 10:34:22;;;;;;;10.27;3.17;;;19.70;1.00;;;;;;6176029;23;20421;-81
2022/10/24 10:37:27;;;;;;;15.10;3.60;;;19.60;1.00;;;;;;6161682;23;21411;-81
2022/10/24 10:40:20;;;;;;;10.13;3.10;;;19.60;1.00;;;;;;6149818;23;20568;-82
2022/10/24 10:42:57;;;;;;;8.27;3.30;;;19.60;1.00;;;;;;6172143;23;20479;-81
2022/10/24 10:45:36;;;;;;;9.83;3.57;;;19.50;1.00;;;;;;6183367;23;20421;-82
2022/10/24 10:48:24;;;;;;;7.97;2.83;;;19.40;1.00;;;;;;6151822;23;20441;-82
2022/10/24 10:51:07;;;;;;;9.80;3.27;;;19.40;1.00;;;;;;6175242;23;20518;-81
2022/10/24 10:53:40;;;;;;;12.53;3.67;;;19.40;1.00;;;;;;6158854;23;20436;-80
2022/10/24 10:56:18;;;;;;;10.40;3.20;;;19.40;1.00;;;;;;6158422;23;20453;-81
2022/10/24 10:59:01;;;;;;;9.53;2.97;;;19.40;1.00;;;;;;6166615;23;20522;-81
2022/10/24 11:01:43;;;;;;;9.30;3.30;;;19.40;1.00;;;;;;6198981;23;21026;-81
2022/10/24 11:04:22;;;;;;;12.43;3.67;;;19.30;1.00;;;;;;6182158;23;20458;-82
2022/10/24 11:09:59;;;;;;;9.40;3.10;;;19.40;1.00;;;;;;6155856;23;20480;-82
2022/10/24 11:15:37;;;;;;;9.50;3.07;;;19.50;1.00;;;;;;6148891;23;21178;-83
2022/10/24 11:24:31;;;;;;;9.33;3.47;;;19.80;1.00;;;;;;6143554;23;20444;-82
2022/10/24 11:36:13;;;;;;;10.03;3.30;;;19.80;1.00;;;;;;6166139;23;21156;-81
2022/10/24 11:42:24;;;;;;;10.63;3.40;;;19.80;1.00;;;;;;6153886;23;20436;-84
2022/10/24 11:45:13;;;;;;;14.37;3.23;;;19.70;1.00;;;;;;6138702;23;20412;-85
2022/10/24 11:48:05;;;;;;;9.73;2.83;;;19.80;1.00;;;;;;6126114;23;20434;-85
2022/10/24 11:50:37;;;;;;;10.97;3.03;;;19.60;1.00;;;;;;6193939;23;20504;-83
2022/10/24 11:53:18;;;;;;;11.50;3.03;;;19.70;1.00;;;;;;6181606;23;20433;-81
2022/10/24 11:55:54;;;;;;;10.57;2.60;;;19.70;1.00;;;;;;6168631;23;20495;-81
2022/10/24 11:58:25;;;;;;;10.30;3.00;;;19.70;1.00;;;;;;6167178;23;20502;-83
2022/10/24 12:01:33;;;;;;;9.87;2.73;;;19.60;1.00;;;;;;6177433;23;20436;-81
2022/10/24 12:04:17;;;;;;;12.30;3.30;;;19.60;1.00;;;;;;6129218;23;20573;-80
2022/10/24 12:07:13;;;;;;;8.60;2.90;;;19.60;1.00;;;;;;6176778;23;20421;-82
2022/10/24 12:10:04;;;;;;;8.83;3.20;;;19.60;1.00;;;;;;6134211;23;20487;-81
2022/10/24 12:12:55;;;;;;;9.07;3.00;;;19.70;1.00;;;;;;6143355;23;20438;-83
2022/10/24 12:15:45;;;;;;;8.40;3.10;;;19.80;1.00;;;;;;6175101;23;20417;-80
2022/10/24 12:18:33;;;;;;;10.57;4.07;;;19.80;1.00;;;;;;6153219;23;20432;-82
2022/10/24 12:21:15;;;;;;;9.53;2.70;;;19.90;1.00;;;;;;6163648;23;20516;-82
2022/10/24 12:23:57;;;;;;;10.60;3.47;;;20.10;1.00;;;;;;6133490;23;20433;-83
2022/10/24 12:26:43;;;;;;;8.10;2.77;;;20.30;1.00;;;;;;6190119;23;20431;-86
2022/10/24 12:29:23;;;;;;;12.30;3.00;;;20.20;1.00;;;;;;6166245;23;20498;-86
2022/10/24 12:32:36;;;;;;;11.13;3.00;;;20.30;1.00;;;;;;6132670;23;20454;-84
2022/10/24 12:35:43;;;;;;;10.80;3.47;;;20.10;1.00;;;;;;6153657;23;20447;-83
2022/10/24 12:38:46;;;;;;;10.20;3.90;;;20.00;1.00;;;;;;6154197;23;20428;-83
2022/10/24 12:41:38;;;;;;;12.13;3.93;;;20.10;1.00;;;;;;6165610;23;20496;-82
2022/10/24 12:48:09;;;;;;;11.53;3.60;;;20.10;1.00;;;;;;6060466;23;21282;-83
2022/10/24 12:51:25;;;;;;;8.50;2.90;;;20.10;1.00;;;;;;6029344;23;20460;-82
2022/10/24 12:54:17;;;;;;;8.70;2.60;;;20.30;1.00;;;;;;6020359;23;20456;-82
2022/10/24 13:00:23;;;;;;;8.40;2.53;;;20.60;1.00;;;;;;5942877;23;20438;-83
2022/10/24 13:03:06;;;;;;;9.77;2.57;;;20.50;1.00;;;;;;5973951;23;20595;-83
2022/10/24 13:05:58;;;;;;;10.20;3.10;;;20.60;1.00;;;;;;6084255;23;20897;-83
2022/10/24 13:08:59;;;;;;;12.93;3.70;;;20.60;1.00;;;;;;6134856;23;20480;-84
2022/10/24 13:11:46;;;;;;;10.80;4.50;;;20.80;1.00;;;;;;6152217;23;20475;-82
2022/10/24 13:14:44;;;;;;;9.13;3.00;;;21.00;1.00;;;;;;6151040;23;20421;-83
2022/10/24 13:17:34;;;;;;;10.03;3.13;;;21.10;1.00;;;;;;6157071;23;20825;-81
2022/10/24 13:20:24;;;;;;;7.80;3.10;;;21.00;1.00;;;;;;6165640;23;20488;-85
2022/10/24 13:23:17;;;;;;;7.50;2.80;;;21.10;1.00;;;;;;6151222;23;20432;-83
2022/10/24 13:25:50;;;;;;;10.60;2.80;;;21.00;1.00;;;;;;6153162;23;20417;-85
2022/10/24 13:28:45;;;;;;;9.43;2.93;;;21.00;1.00;;;;;;6172496;23;20449;-82
2022/10/24 13:31:46;;;;;;;10.80;4.10;;;21.10;1.00;;;;;;6185623;23;20489;-84
2022/10/24 13:34:20;;;;;;;10.90;3.07;;;21.10;1.00;;;;;;6172062;23;21257;-84
2022/10/24 13:37:04;;;;;;;12.10;3.87;;;21.00;1.00;;;;;;6169999;23;20478;-84
2022/10/24 13:39:52;;;;;;;10.90;4.03;;;21.00;1.00;;;;;;6150347;23;20424;-84
2022/10/24 13:42:28;;;;;;;11.93;3.03;;;20.80;1.00;;;;;;6162535;23;20941;-85
2022/10/24 13:45:07;;;;;;;9.43;3.00;;;20.80;1.00;;;;;;6146100;23;20440;-83
2022/10/24 13:48:08;;;;;;;;;;;;;;;;;;;;;
2022/10/24 13:50:43;;;;;;;9.87;3.00;;;20.70;1.00;;;;;;6153455;23;38215;-84
2022/10/24 13:53:27;;;;;;;16.50;3.17;;;20.60;1.00;;;;;;6179455;22;20438;-84
2022/10/24 13:56:09;;;;;;;10.00;2.70;;;20.60;1.00;;;;;;6156057;23;20441;-81
2022/10/24 13:58:46;;;;;;;11.53;3.50;;;20.60;1.00;;;;;;6157506;23;20386;-83
2022/10/24 14:01:20;;;;;;;8.40;3.37;;;20.60;1.00;;;;;;6166400;23;20417;-85
2022/10/24 14:03:55;;;;;;;8.40;2.53;;;20.50;1.00;;;;;;6145183;23;20428;-85
2022/10/24 14:06:27;;;;;;;10.30;3.57;;;20.50;1.00;;;;;;6148430;22;20455;-85
2022/10/24 14:11:58;;;;;;;8.87;3.67;;;20.40;1.00;;;;;;6141890;23;20430;-86
2022/10/24 14:14:34;;;;;;;11.50;2.70;;;20.40;1.00;;;;;;6157440;23;20438;-83